Time;durP1;ratioP1;P1;durP2;ratioP2;P2;SDS_P1;SDS_P2;PMS_P1;PMS_P2;Temp;Humidity;BMP_temperature;BMP_pressure;BME280_temperature;BME280_humidity;BME280_pressure;Samples;Min_cycle;Max_cycle;Signal;HPM_P1;HPM_P2
2021/06/29 00:00:04;;;;;;;10.85;8.73;;;;;;;25.90;100.00;101132.56;4860836;29;20466;-76
2021/06/29 00:03:07;;;;;;;11.32;8.73;;;;;;;25.59;100.00;101132.25;4862089;29;20060;-75
2021/06/29 00:05:53;;;;;;;9.77;8.65;;;;;;;25.63;100.00;101131.06;4863856;29;20029;-75
2021/06/29 00:08:39;;;;;;;12.55;9.60;;;;;;;25.59;100.00;101140.28;4862083;29;20128;-75
2021/06/29 00:11:25;;;;;;;14.20;9.90;;;;;;;25.57;100.00;101136.84;4866126;29;20040;-76
2021/06/29 00:14:11;;;;;;;13.95;9.18;;;;;;;25.89;100.00;101124.59;4866291;29;20029;-74
2021/06/29 00:16:56;;;;;;;13.23;8.40;;;;;;;25.74;100.00;101133.78;4866905;29;20037;-74
2021/06/29 00:19:42;;;;;;;16.52;9.73;;;;;;;25.69;100.00;101123.41;4865174;29;20034;-74
2021/06/29 00:22:28;;;;;;;11.00;8.38;;;;;;;25.54;100.00;101126.31;4853853;29;20082;-74
2021/06/29 00:25:14;;;;;;;15.13;8.85;;;;;;;25.70;100.00;101129.59;4853550;29;20459;-75
2021/06/29 00:28:00;;;;;;;9.80;8.73;;;;;;;26.01;100.00;101118.34;4866343;29;20069;-75
2021/06/29 00:30:46;;;;;;;14.50;9.15;;;;;;;25.87;100.00;101123.84;4866066;29;20047;-75
2021/06/29 00:33:32;;;;;;;12.40;9.15;;;;;;;25.93;100.00;101118.91;4865857;29;20106;-74
2021/06/29 00:36:18;;;;;;;14.20;9.10;;;;;;;25.64;100.00;101119.34;4867152;29;20116;-75
2021/06/29 00:39:04;;;;;;;11.18;9.45;;;;;;;25.44;100.00;101123.44;4865776;29;20371;-75
2021/06/29 00:41:50;;;;;;;15.30;8.95;;;;;;;25.27;100.00;101120.25;4866065;29;20033;-75
2021/06/29 00:44:36;;;;;;;11.30;8.77;;;;;;;25.33;100.00;101122.53;4865158;29;20029;-75
2021/06/29 00:47:21;;;;;;;9.65;8.63;;;;;;;25.64;100.00;101113.97;4865382;29;20467;-75
2021/06/29 00:50:08;;;;;;;11.40;8.82;;;;;;;25.81;100.00;101111.75;4864980;29;20048;-75
2021/06/29 00:52:54;;;;;;;10.27;8.48;;;;;;;25.84;100.00;101111.50;4865372;29;20108;-75
2021/06/29 00:55:41;;;;;;;11.82;8.75;;;;;;;25.70;100.00;101113.50;4866141;29;20121;-75
2021/06/29 00:58:27;;;;;;;9.85;8.25;;;;;;;25.85;100.00;101118.63;4864596;29;20124;-75
2021/06/29 01:01:14;;;;;;;10.70;8.63;;;;;;;25.84;100.00;101102.63;4865986;29;20041;-75
2021/06/29 01:03:59;;;;;;;9.73;8.55;;;;;;;26.04;100.00;101118.13;4864500;29;20041;-75
2021/06/29 01:06:46;;;;;;;9.55;8.55;;;;;;;26.02;100.00;101122.75;4865101;29;20029;-75
2021/06/29 01:09:33;;;;;;;10.65;8.40;;;;;;;25.99;100.00;101118.47;4865412;29;20348;-75
2021/06/29 01:12:18;;;;;;;11.23;8.63;;;;;;;26.00;100.00;101122.84;4865629;29;20033;-75
2021/06/29 01:15:05;;;;;;;11.02;8.52;;;;;;;25.97;100.00;101115.06;4864785;29;20038;-75
2021/06/29 01:17:52;;;;;;;11.45;8.38;;;;;;;25.80;100.00;101117.25;4851676;29;20030;-75
2021/06/29 01:20:41;;;;;;;10.00;8.18;;;;;;;25.69;100.00;101122.53;4865600;29;20029;-76
2021/06/29 02:01:26;;;;;;;11.75;8.75;;;;;;;25.45;100.00;101103.72;4919592;23;20061;-77
2021/06/29 02:04:13;;;;;;;10.55;8.82;;;;;;;25.43;100.00;101102.13;4845298;29;20045;-77
2021/06/29 02:06:58;;;;;;;11.50;8.38;;;;;;;25.36;100.00;101098.16;4833719;29;20058;-76
2021/06/29 02:09:44;;;;;;;12.18;8.75;;;;;;;25.13;100.00;101101.59;4845200;29;20555;-76
2021/06/29 02:12:30;;;;;;;9.20;8.30;;;;;;;25.18;100.00;101094.06;4846373;29;20057;-76
2021/06/29 02:15:16;;;;;;;12.68;8.77;;;;;;;25.45;100.00;101105.53;4845041;29;20035;-76
2021/06/29 02:18:03;;;;;;;13.73;9.00;;;;;;;25.28;100.00;101112.09;4834107;29;20065;-76
2021/06/29 02:20:49;;;;;;;10.57;8.98;;;;;;;25.34;100.00;101100.94;4845872;29;20026;-76
2021/06/29 02:23:35;;;;;;;14.40;9.68;;;;;;;25.55;100.00;101104.75;4845896;29;20133;-76
2021/06/29 02:26:21;;;;;;;9.80;8.70;;;;;;;25.45;100.00;101103.72;4845735;29;20029;-77
2021/06/29 02:29:06;;;;;;;10.70;7.70;;;;;;;25.38;100.00;101109.63;4832282;29;20045;-76
2021/06/29 02:31:52;;;;;;;9.88;8.57;;;;;;;25.22;100.00;101108.97;4845680;29;20040;-76
2021/06/29 02:34:38;;;;;;;8.85;7.95;;;;;;;25.21;100.00;101123.38;4845095;29;20065;-77
2021/06/29 02:37:25;;;;;;;10.77;8.35;;;;;;;25.50;100.00;101117.66;4832195;29;20138;-76
2021/06/29 03:22:51;;;;;;;14.15;9.88;;;;;;;24.86;100.00;101141.06;5400627;23;20062;-76
2021/06/29 03:25:37;;;;;;;15.43;10.90;;;;;;;25.00;100.00;101149.03;4862625;29;20041;-76
2021/06/29 03:28:23;;;;;;;13.50;10.85;;;;;;;24.97;100.00;101142.06;4862555;29;20037;-76
2021/06/29 03:31:09;;;;;;;18.00;11.57;;;;;;;25.19;100.00;101147.63;4860893;29;20459;-76
2021/06/29 03:33:55;;;;;;;16.75;11.73;;;;;;;24.80;100.00;101150.44;4862157;29;20033;-76
2021/06/29 03:36:42;;;;;;;17.58;12.63;;;;;;;25.07;100.00;101150.31;4849247;29;20033;-76
2021/06/29 03:39:28;;;;;;;22.63;13.10;;;;;;;24.76;100.00;101151.59;4862262;29;20072;-76
2021/06/29 03:42:14;;;;;;;15.38;11.98;;;;;;;25.23;100.00;101157.16;4861511;29;20036;-76
2021/06/29 03:45:00;;;;;;;17.15;12.07;;;;;;;25.32;100.00;101164.56;4861622;29;20087;-76
2021/06/29 03:47:46;;;;;;;17.13;13.23;;;;;;;25.13;100.00;101163.28;4861877;29;20459;-76
2021/06/29 03:50:32;;;;;;;21.45;13.38;;;;;;;25.09;100.00;101153.75;4861610;29;20044;-76
2021/06/29 03:53:17;;;;;;;15.63;13.93;;;;;;;25.26;100.00;101165.00;4861727;29;20030;-76
2021/06/29 03:56:03;;;;;;;18.30;13.20;;;;;;;25.10;100.00;101166.16;4849627;29;20033;-77
2021/06/29 03:59:00;;;;;;;16.63;12.35;;;;;;;25.15;100.00;101172.94;4861590;29;20053;-77
2021/06/29 04:01:46;;;;;;;18.27;13.10;;;;;;;25.24;100.00;101174.13;4849317;29;20487;-75
2021/06/29 04:44:16;;;;;;;14.77;12.50;;;;;;;25.40;100.00;101147.94;5457396;23;20015;-76
2021/06/29 04:47:02;;;;;;;16.27;12.95;;;;;;;25.41;100.00;101149.66;4861516;29;20430;-77
2021/06/29 04:49:48;;;;;;;15.55;12.82;;;;;;;25.75;100.00;101138.19;4861820;29;20029;-76
2021/06/29 04:52:33;;;;;;;16.02;12.27;;;;;;;25.77;100.00;101137.13;4861339;29;20041;-77
2021/06/29 04:55:20;;;;;;;19.35;12.18;;;;;;;26.04;100.00;101136.94;4861366;29;20033;-76
2021/06/29 04:58:06;;;;;;;20.73;13.45;;;;;;;25.83;100.00;101143.84;4863802;29;20038;-76
2021/06/29 05:00:51;;;;;;;21.35;12.75;;;;;;;25.66;100.00;101142.41;4863971;29;20037;-77
2021/06/29 05:03:39;;;;;;;16.45;13.27;;;;;;;25.78;100.00;101137.97;4851483;29;20064;-76
2021/06/29 05:06:25;;;;;;;21.40;12.32;;;;;;;26.17;100.00;101133.22;4852385;29;20037;-76
2021/06/29 05:09:11;;;;;;;17.73;12.80;;;;;;;26.13;100.00;101139.78;4864355;29;20475;-76
2021/06/29 05:11:56;;;;;;;18.58;12.02;;;;;;;26.43;100.00;101137.44;4864503;29;20089;-76
2021/06/29 05:14:42;;;;;;;19.55;13.07;;;;;;;26.64;100.00;101135.84;4851087;29;20443;-76
2021/06/29 05:17:28;;;;;;;19.35;12.55;;;;;;;26.73;100.00;101139.66;4864143;29;20517;-76
2021/06/29 05:20:14;;;;;;;17.65;12.68;;;;;;;26.62;100.00;101136.94;4864205;29;20379;-76
2021/06/29 05:22:59;;;;;;;26.75;18.42;;;;;;;26.82;100.00;101138.94;4863729;29;20177;-76
2021/06/29 05:25:45;;;;;;;18.30;13.93;;;;;;;26.92;100.00;101131.84;4863487;29;20033;-76
2021/06/29 05:28:31;;;;;;;24.73;16.83;;;;;;;27.03;100.00;101140.81;4864289;29;20025;-76
2021/06/29 05:31:17;;;;;;;18.48;13.70;;;;;;;27.36;100.00;101140.84;4864054;29;20474;-77
2021/06/29 05:34:03;;;;;;;16.70;13.82;;;;;;;27.07;100.00;101144.97;4863918;29;20037;-76
2021/06/29 05:36:49;;;;;;;17.98;13.90;;;;;;;27.06;100.00;101142.38;4864351;29;20030;-77
2021/06/29 05:39:35;;;;;;;23.98;14.30;;;;;;;27.06;100.00;101139.69;4864504;29;20029;-76
2021/06/29 05:42:21;;;;;;;23.38;13.57;;;;;;;26.91;100.00;101138.19;4864201;29;20451;-77
2021/06/29 05:45:08;;;;;;;19.95;13.75;;;;;;;26.95;100.00;101136.97;4850686;29;20136;-76
2021/06/29 05:47:55;;;;;;;18.95;13.02;;;;;;;27.51;100.00;101140.59;4863432;29;20112;-76
2021/06/29 05:50:41;;;;;;;21.83;13.57;;;;;;;27.24;100.00;101138.25;4863524;29;20367;-76
2021/06/29 05:53:29;;;;;;;22.08;13.70;;;;;;;27.29;100.00;101138.78;4850675;29;20124;-76
2021/06/29 05:56:15;;;;;;;18.23;11.95;;;;;;;27.71;100.00;101139.78;4850875;29;20061;-76
2021/06/29 05:59:01;;;;;;;20.58;13.35;;;;;;;27.71;100.00;101151.44;4864213;29;20033;-76
2021/06/29 06:01:46;;;;;;;22.13;12.70;;;;;;;27.58;100.00;101146.19;4849930;29;20049;-76
2021/06/29 06:04:32;;;;;;;26.60;13.05;;;;;;;27.39;100.00;101148.66;4863750;29;20432;-76
2021/06/29 06:07:18;;;;;;;15.73;11.30;;;;;;;27.79;100.00;101146.28;4863453;29;20065;-76
2021/06/29 06:10:05;;;;;;;20.38;12.98;;;;;;;28.29;100.00;101151.03;4863756;29;20486;-76
2021/06/29 06:12:51;;;;;;;23.02;14.38;;;;;;;28.61;100.00;101146.50;4863162;29;20037;-76
2021/06/29 06:15:37;;;;;;;17.13;12.80;;;;;;;27.96;100.00;101156.56;4863363;29;20401;-76
2021/06/29 06:18:23;;;;;;;22.60;13.10;;;;;;;27.66;100.00;101153.66;4863935;29;20044;-76
2021/06/29 06:21:10;;;;;;;25.75;13.52;;;;;;;27.75;100.00;101143.94;4864442;29;20103;-76
2021/06/29 06:23:56;;;;;;;22.63;13.85;;;;;;;28.36;100.00;101144.16;4851486;29;20060;-76
2021/06/29 06:26:41;;;;;;;28.65;14.60;;;;;;;28.52;100.00;101154.56;4862738;29;20038;-76
2021/06/29 06:29:27;;;;;;;17.50;11.95;;;;;;;28.34;100.00;101151.53;4863620;29;20033;-76
2021/06/29 06:32:13;;;;;;;21.50;14.05;;;;;;;28.71;100.00;101157.38;4862627;29;20044;-76
2021/06/29 06:34:59;;;;;;;23.20;13.18;;;;;;;28.90;100.00;101158.38;4850244;29;20056;-76
2021/06/29 06:37:45;;;;;;;19.65;11.95;;;;;;;28.80;100.00;101160.13;4849472;29;20029;-76
2021/06/29 06:40:30;;;;;;;22.95;13.65;;;;;;;28.85;100.00;101155.19;4862754;29;20029;-76
2021/06/29 06:43:16;;;;;;;20.80;14.90;;;;;;;28.99;100.00;101156.69;4849523;29;20022;-76
2021/06/29 06:46:02;;;;;;;20.83;14.45;;;;;;;29.04;100.00;101157.16;4863323;29;20535;-75
2021/06/29 06:48:48;;;;;;;24.15;13.73;;;;;;;29.18;100.00;101163.09;4862528;29;20091;-75
2021/06/29 06:51:34;;;;;;;21.10;13.93;;;;;;;28.91;100.00;101167.28;4862970;29;20340;-75
2021/06/29 06:54:19;;;;;;;18.98;13.00;;;;;;;29.07;100.00;101162.31;4850394;29;20444;-74
2021/06/29 06:57:06;;;;;;;20.15;12.70;;;;;;;29.24;100.00;101165.25;4850914;29;20097;-75
2021/06/29 06:59:51;;;;;;;17.25;12.02;;;;;;;29.65;100.00;101170.56;4862928;29;20029;-75
2021/06/29 07:02:40;;;;;;;17.60;11.05;;;;;;;29.83;100.00;101166.22;4862729;29;20030;-75
2021/06/29 07:05:26;;;;;;;14.55;10.32;;;;;;;30.03;100.00;101159.00;4862571;29;20451;-75
2021/06/29 07:08:12;;;;;;;14.85;12.02;;;;;;;29.76;100.00;101164.19;4850767;29;20104;-76
2021/06/29 07:10:59;;;;;;;16.20;10.73;;;;;;;30.10;100.00;101154.75;4850296;29;20136;-76
2021/06/29 07:13:45;;;;;;;16.52;11.10;;;;;;;29.94;100.00;101159.84;4848592;29;20030;-75
2021/06/29 07:16:30;;;;;;;14.25;9.82;;;;;;;30.27;100.00;101145.97;4862459;29;20029;-76
2021/06/29 07:19:19;;;;;;;18.08;10.48;;;;;;;30.17;100.00;101148.66;4863140;29;20036;-76
2021/06/29 07:22:05;;;;;;;16.23;10.95;;;;;;;29.84;100.00;101150.84;4862845;29;20329;-75
2021/06/29 07:24:51;;;;;;;16.48;10.95;;;;;;;30.04;100.00;101152.59;4862163;29;20037;-75
2021/06/29 07:27:36;;;;;;;15.05;11.68;;;;;;;30.41;100.00;101153.63;4850584;29;20417;-75
2021/06/29 07:30:22;;;;;;;23.20;12.75;;;;;;;29.96;100.00;101142.47;4862257;29;20041;-75
2021/06/29 07:33:08;;;;;;;18.13;12.73;;;;;;;30.61;100.00;101149.91;4861766;29;20033;-76
2021/06/29 07:35:55;;;;;;;20.40;12.07;;;;;;;31.02;100.00;101152.31;4862283;29;20037;-75
2021/06/29 07:38:43;;;;;;;24.27;12.38;;;;;;;31.50;100.00;101149.44;4862857;29;20037;-75
2021/06/29 07:41:29;;;;;;;16.67;11.85;;;;;;;31.01;100.00;101153.28;4862405;29;20029;-76
2021/06/29 07:44:15;;;;;;;19.30;12.27;;;;;;;31.05;100.00;101152.00;4850072;29;20438;-76
2021/06/29 07:47:00;;;;;;;15.70;11.30;;;;;;;31.41;100.00;101147.63;4848890;29;20033;-75
2021/06/29 07:49:48;;;;;;;22.55;11.40;;;;;;;31.49;100.00;101145.88;4861662;29;20042;-75
2021/06/29 07:52:34;;;;;;;17.27;12.02;;;;;;;31.33;100.00;101147.53;4861384;29;20038;-76
2021/06/29 07:55:20;;;;;;;14.80;12.07;;;;;;;31.74;100.00;101152.44;4861579;29;20116;-75
2021/06/29 07:58:06;;;;;;;26.98;11.70;;;;;;;31.56;100.00;101151.53;4861964;29;20068;-75
2021/06/29 08:04:18;;;;;;;18.65;11.40;;;;;;;32.01;100.00;101150.59;4862323;29;20025;-76
2021/06/29 08:07:04;;;;;;;14.68;11.15;;;;;;;32.28;100.00;101147.81;4849439;29;20056;-76
2021/06/29 08:09:50;;;;;;;17.70;11.68;;;;;;;32.05;100.00;101151.97;4862525;29;20125;-76
2021/06/29 08:12:36;;;;;;;14.10;11.10;;;;;;;32.34;100.00;101140.97;4861772;29;20486;-76
2021/06/29 08:15:22;;;;;;;15.95;11.40;;;;;;;32.70;100.00;101139.91;4849447;29;20033;-75
2021/06/29 08:18:08;;;;;;;20.95;12.00;;;;;;;32.52;100.00;101139.06;4848941;29;20072;-76
2021/06/29 08:20:58;;;;;;;16.15;11.60;;;;;;;33.45;100.00;101150.94;4847577;29;20033;-76
2021/06/29 08:23:44;;;;;;;15.98;10.65;;;;;;;33.56;100.00;101147.94;4849404;29;20065;-76
2021/06/29 08:26:30;;;;;;;17.83;11.68;;;;;;;33.59;100.00;101148.44;4861111;29;20173;-76
2021/06/29 08:29:15;;;;;;;15.65;12.32;;;;;;;34.25;100.00;101146.63;4860902;29;20048;-76
2021/06/29 08:32:01;;;;;;;15.13;11.05;;;;;;;34.36;100.00;101143.59;4861859;29;20029;-76
2021/06/29 08:34:47;;;;;;;17.13;11.77;;;;;;;33.76;100.00;101143.94;4852425;29;20440;-76
2021/06/29 08:37:36;;;;;;;13.98;10.85;;;;;;;33.66;100.00;101154.06;4864506;29;20034;-76
2021/06/29 08:40:26;;;;;;;19.17;11.48;;;;;;;34.20;100.00;101140.81;4865141;29;20126;-76
2021/06/29 08:43:14;;;;;;;16.98;11.27;;;;;;;34.01;100.00;101143.00;4864909;29;20040;-76
2021/06/29 08:46:01;;;;;;;18.00;11.35;;;;;;;34.32;100.00;101139.50;4846865;29;20501;-77
2021/06/29 08:48:47;;;;;;;13.25;10.68;;;;;;;33.69;100.00;101145.59;4846411;29;20396;-76
2021/06/29 08:51:34;;;;;;;18.52;9.90;;;;;;;33.24;100.00;101147.75;4833169;29;20368;-77
2021/06/29 08:54:21;;;;;;;13.82;10.13;;;;;;;33.45;100.00;101145.50;4833829;29;20030;-76
2021/06/29 08:57:08;;;;;;;12.32;10.10;;;;;;;33.86;99.35;101141.94;4846096;29;20463;-76
2021/06/29 08:59:53;;;;;;;11.30;10.05;;;;;;;33.52;100.00;101133.84;4847001;29;20106;-76
2021/06/29 09:02:41;;;;;;;14.38;10.60;;;;;;;33.36;100.00;101139.19;4845775;29;20026;-76
2021/06/29 09:05:29;;;;;;;14.30;10.43;;;;;;;33.86;100.00;101129.22;4846581;29;20440;-76
2021/06/29 09:08:17;;;;;;;13.85;10.38;;;;;;;33.85;100.00;101143.84;4845514;29;20064;-76
2021/06/29 09:11:21;;;;;;;17.02;10.15;;;;;;;33.93;100.00;101123.94;4847198;29;20228;-76
2021/06/29 09:14:09;;;;;;;16.40;10.20;;;;;;;34.52;100.00;101127.25;4846353;29;20349;-76
2021/06/29 09:17:20;;;;;;;14.52;10.35;;;;;;;34.24;100.00;101127.75;4846986;29;20113;-76
2021/06/29 09:20:11;;;;;;;12.93;10.55;;;;;;;34.20;100.00;101124.50;4847221;29;20034;-76
2021/06/29 09:23:12;;;;;;;14.30;10.50;;;;;;;34.33;100.00;101119.47;4846239;29;20077;-76
2021/06/29 09:26:11;;;;;;;12.20;10.13;;;;;;;34.54;97.49;101125.25;4833106;29;20448;-76
2021/06/29 09:29:13;;;;;;;12.07;10.15;;;;;;;34.77;100.00;101119.94;4833651;29;20037;-77
2021/06/29 09:32:18;;;;;;;11.75;10.20;;;;;;;34.83;99.68;101114.69;4833157;29;20033;-77
2021/06/29 09:35:06;;;;;;;13.13;10.45;;;;;;;34.65;99.74;101110.41;4846733;29;20231;-76
2021/06/29 09:37:52;;;;;;;13.27;10.27;;;;;;;34.52;96.01;101112.81;4845382;29;20121;-76
2021/06/29 09:40:37;;;;;;;16.52;10.95;;;;;;;34.93;98.05;101109.03;4845972;29;20080;-77
2021/06/29 09:43:25;;;;;;;12.23;10.15;;;;;;;34.94;93.71;101102.56;4845624;29;20037;-76
2021/06/29 09:46:14;;;;;;;12.52;9.93;;;;;;;35.03;96.36;101099.66;4850372;29;20145;-76
2021/06/29 09:49:09;;;;;;;11.80;10.15;;;;;;;34.62;98.66;101099.88;4863981;29;20037;-76
2021/06/29 09:52:01;;;;;;;12.13;10.50;;;;;;;34.91;96.79;101089.28;4863588;29;20037;-77
2021/06/29 09:54:47;;;;;;;10.88;8.95;;;;;;;34.60;93.15;101091.03;4851176;29;20070;-76
2021/06/29 09:57:33;;;;;;;14.85;11.88;;;;;;;33.97;100.00;101087.25;4864521;29;20045;-76
2021/06/29 10:00:42;;;;;;;12.98;10.40;;;;;;;33.13;100.00;101096.41;4863989;29;20025;-75
2021/06/29 10:03:35;;;;;;;11.68;10.30;;;;;;;33.90;100.00;101081.63;4864839;29;20029;-75
2021/06/29 10:06:26;;;;;;;13.43;10.30;;;;;;;33.77;99.81;101083.97;4864386;29;20048;-75
2021/06/29 10:09:16;;;;;;;12.27;10.23;;;;;;;33.96;97.85;101080.94;4863362;29;20029;-78
2021/06/29 10:12:02;;;;;;;18.05;10.88;;;;;;;33.83;100.00;101083.31;4851599;29;20430;-76
2021/06/29 10:14:48;;;;;;;14.43;10.82;;;;;;;33.82;100.00;101069.88;4862518;29;20061;-77
2021/06/29 10:17:36;;;;;;;14.02;10.93;;;;;;;34.08;99.63;101068.72;4863247;29;20451;-77
2021/06/29 10:20:26;;;;;;;15.23;11.38;;;;;;;33.81;98.96;101071.72;4863301;29;20034;-77
2021/06/29 10:23:16;;;;;;;14.13;11.13;;;;;;;34.27;96.89;101073.00;4863898;29;20030;-77
2021/06/29 10:26:05;;;;;;;14.40;10.73;;;;;;;34.54;97.27;101078.97;4851298;29;20056;-77
2021/06/29 10:28:52;;;;;;;18.30;10.43;;;;;;;34.32;94.49;101071.47;4863925;29;20041;-77
2021/06/29 10:31:44;;;;;;;13.32;11.20;;;;;;;34.22;95.52;101068.06;4863507;29;20065;-77
2021/06/29 10:34:31;;;;;;;13.43;9.82;;;;;;;33.38;98.56;101068.34;4849625;29;20428;-77
2021/06/29 10:37:17;;;;;;;12.57;10.27;;;;;;;32.93;99.87;101065.06;4851690;29;20030;-76
2021/06/29 10:40:04;;;;;;;12.30;9.77;;;;;;;33.74;96.99;101059.81;4865232;29;20044;-77
2021/06/29 10:43:01;;;;;;;28.30;10.65;;;;;;;34.24;95.93;101051.56;4868477;29;20086;-76
2021/06/29 10:45:51;;;;;;;12.43;10.30;;;;;;;34.06;95.69;101056.31;4865410;29;20065;-76
2021/06/29 10:48:37;;;;;;;14.30;9.88;;;;;;;34.11;95.31;101041.19;4864053;29;20036;-76
2021/06/29 10:51:37;;;;;;;10.60;9.60;;;;;;;33.91;93.80;101047.13;4851293;29;20045;-76
2021/06/29 10:54:42;;;;;;;14.45;9.85;;;;;;;33.38;96.35;101042.06;4862176;29;20063;-75
2021/06/29 10:57:39;;;;;;;12.95;9.77;;;;;;;33.73;95.37;101039.09;4849994;29;20173;-75
2021/06/29 11:00:28;;;;;;;11.25;10.00;;;;;;;34.00;93.58;101037.97;4851933;29;20033;-75
2021/06/29 11:03:14;;;;;;;13.30;9.75;;;;;;;34.03;92.50;101049.34;4851498;29;20116;-76
2021/06/29 11:06:01;;;;;;;13.93;9.30;;;;;;;33.95;94.20;101041.19;4864349;29;20061;-75
2021/06/29 11:08:48;;;;;;;13.77;9.25;;;;;;;34.31;92.63;101041.75;4863944;29;20071;-76
2021/06/29 11:11:34;;;;;;;13.35;8.73;;;;;;;34.57;91.82;101035.06;4863537;29;20055;-76
2021/06/29 11:14:28;;;;;;;10.07;8.90;;;;;;;34.80;89.86;101043.38;4862655;29;20041;-76
2021/06/29 11:17:17;;;;;;;11.40;8.77;;;;;;;34.51;86.97;101032.19;4850221;29;20029;-76
2021/06/29 11:20:09;;;;;;;16.50;9.35;;;;;;;34.53;88.31;101024.69;4863193;29;20041;-76
2021/06/29 11:23:04;;;;;;;11.38;9.45;;;;;;;34.37;86.52;101022.00;4863998;29;20127;-77
2021/06/29 11:25:55;;;;;;;11.02;8.95;;;;;;;34.72;85.27;101018.88;4850959;29;20521;-76
2021/06/29 11:28:51;;;;;;;15.88;9.35;;;;;;;34.97;87.73;101017.78;4863348;29;20124;-76
2021/06/29 11:31:37;;;;;;;12.75;9.48;;;;;;;34.89;87.36;101015.09;4863094;29;20138;-76
2021/06/29 11:34:26;;;;;;;13.02;9.23;;;;;;;35.14;85.52;101012.09;4863764;29;20056;-76
2021/06/29 11:37:24;;;;;;;14.43;9.32;;;;;;;35.10;86.87;101009.88;4863487;29;20037;-76
2021/06/29 11:40:10;;;;;;;12.07;9.20;;;;;;;35.22;83.75;101005.75;4849795;29;20044;-76
2021/06/29 11:43:13;;;;;;;12.82;9.38;;;;;;;35.01;84.59;101003.66;4862563;29;20492;-76
2021/06/29 11:45:58;;;;;;;10.65;9.25;;;;;;;35.11;83.28;100997.97;4862994;29;20056;-77
2021/06/29 11:48:45;;;;;;;10.07;9.05;;;;;;;34.70;83.90;100997.25;4850388;29;20485;-77
2021/06/29 11:51:52;;;;;;;14.38;9.43;;;;;;;34.88;87.04;100992.44;4850123;29;20128;-77
2021/06/29 11:54:43;;;;;;;10.25;9.15;;;;;;;35.30;85.69;100996.69;4863045;29;20038;-75
2021/06/29 11:57:39;;;;;;;15.15;8.75;;;;;;;35.22;80.40;100995.72;4862153;29;20057;-76
2021/06/29 12:00:33;;;;;;;12.02;8.13;;;;;;;35.52;78.11;100991.31;4850675;29;20107;-76
2021/06/29 12:03:20;;;;;;;9.32;8.43;;;;;;;35.40;80.25;100989.16;4862530;29;20085;-76
2021/06/29 12:06:16;;;;;;;11.02;8.85;;;;;;;34.99;81.18;100983.03;4864650;29;20037;-76
2021/06/29 12:09:02;;;;;;;9.27;8.40;;;;;;;35.43;79.09;100970.56;4866341;29;20108;-76
2021/06/29 12:11:48;;;;;;;19.52;9.15;;;;;;;35.71;76.03;100974.44;4867132;29;20066;-77
2021/06/29 12:14:33;;;;;;;12.65;8.35;;;;;;;35.62;79.00;100974.69;4852292;29;20042;-78
2021/06/29 12:17:19;;;;;;;12.40;9.63;;;;;;;35.29;77.87;100967.75;4854228;29;20030;-77
2021/06/29 12:20:08;;;;;;;10.93;8.68;;;;;;;36.08;75.87;100977.22;4865824;29;20422;-76
2021/06/29 12:22:55;;;;;;;13.95;10.13;;;;;;;35.89;74.22;100985.09;4866681;29;20029;-76
2021/06/29 12:25:47;;;;;;;11.57;7.88;;;;;;;35.94;73.13;100975.31;4864950;29;20033;-76
2021/06/29 12:28:37;;;;;;;14.05;9.70;;;;;;;36.47;75.03;100972.44;4866613;29;20114;-76
2021/06/29 12:31:23;;;;;;;12.07;8.52;;;;;;;35.93;73.20;100965.44;4866038;29;20048;-76
2021/06/29 12:34:08;;;;;;;12.27;9.73;;;;;;;36.12;74.00;100970.38;4865684;29;20116;-76
2021/06/29 12:37:04;;;;;;;12.07;10.45;;;;;;;36.50;71.66;100965.75;4865674;29;20186;-76
2021/06/29 12:39:50;;;;;;;11.40;8.90;;;;;;;36.08;71.86;100960.84;4865687;29;20056;-76
2021/06/29 12:42:40;;;;;;;10.82;8.38;;;;;;;35.83;73.32;100955.81;4865797;29;20039;-76
2021/06/29 12:45:29;;;;;;;13.15;10.20;;;;;;;36.03;76.81;100957.00;4853360;29;20474;-76
2021/06/29 12:48:17;;;;;;;11.68;8.75;;;;;;;35.80;74.88;100954.31;4852086;29;20051;-78
2021/06/29 12:51:05;;;;;;;13.77;9.82;;;;;;;35.54;73.80;100945.63;4865601;29;20036;-75
2021/06/29 12:54:01;;;;;;;12.05;10.05;;;;;;;35.30;80.37;100947.66;4864930;29;20375;-75
2021/06/29 12:56:58;;;;;;;17.27;8.77;;;;;;;35.31;83.62;100939.28;4863882;29;20443;-76
2021/06/29 12:59:46;;;;;;;18.40;11.75;;;;;;;36.00;79.06;100941.00;4864953;29;20037;-77
2021/06/29 13:02:32;;;;;;;10.32;8.38;;;;;;;35.84;79.72;100939.28;4852596;29;20041;-76
2021/06/29 13:05:23;;;;;;;8.43;7.55;;;;;;;36.16;76.24;100935.38;4864319;29;20029;-76
2021/06/29 13:08:10;;;;;;;7.63;6.78;;;;;;;35.60;69.90;100933.13;4865157;29;20068;-75
2021/06/29 13:10:55;;;;;;;10.57;7.78;;;;;;;35.33;73.88;100915.44;4864328;29;20053;-75
2021/06/29 13:13:56;;;;;;;9.25;7.43;;;;;;;35.58;74.07;100916.97;4865201;29;20093;-76
2021/06/29 13:16:41;;;;;;;8.65;7.75;;;;;;;36.20;72.12;100923.06;4852296;29;20037;-76
2021/06/29 13:19:27;;;;;;;12.88;8.88;;;;;;;35.59;73.91;100913.19;4864505;29;20069;-76
2021/06/29 13:22:15;;;;;;;10.55;9.20;;;;;;;36.04;74.10;100915.03;4864978;29;20042;-76
2021/06/29 13:25:27;;;;;;;10.40;9.10;;;;;;;36.08;76.59;100919.94;4864667;29;20105;-76
2021/06/29 13:28:17;;;;;;;11.77;8.10;;;;;;;35.39;75.93;100919.34;4851256;29;20134;-76
2021/06/29 13:31:10;;;;;;;8.57;7.78;;;;;;;35.59;74.49;100918.66;4865958;29;20382;-77
2021/06/29 13:33:56;;;;;;;10.70;8.30;;;;;;;35.73;74.24;100917.88;4852301;29;20450;-77
2021/06/29 13:36:45;;;;;;;13.32;8.32;;;;;;;35.99;71.16;100912.88;4865349;29;20029;-76
2021/06/29 13:39:31;;;;;;;13.23;8.38;;;;;;;35.66;71.72;100910.56;4864320;29;20112;-76
2021/06/29 13:42:22;;;;;;;10.43;6.70;;;;;;;35.45;68.02;100907.69;4864617;29;20034;-77
2021/06/29 13:45:11;;;;;;;7.35;6.20;;;;;;;35.60;65.90;100906.72;4863556;29;20049;-77
2021/06/29 13:47:57;;;;;;;11.73;7.88;;;;;;;35.68;68.79;100908.53;4864433;29;20104;-76
2021/06/29 13:50:45;;;;;;;10.32;8.77;;;;;;;35.81;72.38;100906.91;4850834;29;20037;-76
2021/06/29 13:53:32;;;;;;;11.05;7.28;;;;;;;36.44;65.38;100899.09;4866409;29;20025;-77
2021/06/29 13:56:33;;;;;;;14.38;7.18;;;;;;;36.02;70.74;100903.44;4863709;29;20060;-77
2021/06/29 13:59:40;;;;;;;7.25;6.55;;;;;;;35.51;64.64;100896.91;4864635;29;20143;-77
2021/06/29 14:02:31;;;;;;;6.05;5.47;;;;;;;35.71;61.26;100889.09;4849945;29;20163;-77
2021/06/29 14:05:30;;;;;;;6.57;5.63;;;;;;;36.21;59.09;100895.59;4852496;29;20033;-76
2021/06/29 14:08:20;;;;;;;6.32;5.72;;;;;;;35.45;61.18;100881.28;4864968;29;20033;-76
2021/06/29 14:11:09;;;;;;;10.55;5.25;;;;;;;35.00;61.12;100892.13;4865051;29;20033;-76
2021/06/29 14:13:56;;;;;;;7.80;5.28;;;;;;;34.72;62.08;100885.44;4864189;29;20459;-75
2021/06/29 14:16:42;;;;;;;9.05;5.45;;;;;;;35.18;59.56;100879.91;4864247;29;20507;-75
2021/06/29 14:19:28;;;;;;;6.22;5.35;;;;;;;35.41;61.00;100881.81;4863762;29;20033;-76
2021/06/29 14:22:16;;;;;;;10.82;6.18;;;;;;;35.16;55.88;100875.69;4864558;29;20041;-76
2021/06/29 14:25:03;;;;;;;5.80;5.03;;;;;;;35.22;55.04;100864.03;4852063;29;20033;-75
2021/06/29 14:27:53;;;;;;;14.63;5.60;;;;;;;35.50;56.59;100867.94;4863036;29;20025;-75
2021/06/29 14:30:39;;;;;;;7.10;5.55;;;;;;;35.22;59.62;100858.59;4864436;29;20036;-75
2021/06/29 14:33:25;;;;;;;6.15;5.43;;;;;;;35.18;60.85;100860.84;4849746;29;20378;-75
2021/06/29 14:36:13;;;;;;;8.32;5.47;;;;;;;34.75;59.56;100853.25;4864032;29;20477;-75
2021/06/29 14:38:58;;;;;;;6.88;5.53;;;;;;;34.41;60.17;100860.91;4864227;29;20040;-76
2021/06/29 14:41:44;;;;;;;6.55;5.60;;;;;;;35.17;58.65;100861.03;4863485;29;20030;-76
2021/06/29 14:44:30;;;;;;;15.48;6.75;;;;;;;35.38;59.63;100857.66;4863415;29;20046;-76
2021/06/29 14:47:16;;;;;;;6.82;5.50;;;;;;;35.25;61.05;100860.97;4849250;29;20048;-76